Rockville, Connecticut
Current Conditions -  °F | °C
As of 10:53 AM on Thursday 30 Oct 2014 (Local Time) from KHFD Reporting Station
Clear Clear  
Wind Chill: 54°   Ceiling: Unl
Heat Index: 54°   Visibility: 10mi
Dew Point: 40°   Wind: 7mph
Humidity: 59%   Direction: NA
Pressure: 29.98"   Gusts: NA
Location:  41.837°N, 72.4608°W
Report Text: KHFD 301453Z VRB06KT 10SM CLR 12/04 A2998 RMK AO2 SLP151 T01220044 50001
Loading
Personal Weather Stations






























Interactive Weather Map
Tropical Storm Tracking
New forecast layout! Learn more

10-Day Weather Forecast

Advertisements
Track Severe Weather on mobile